• Join FlightAware (Why Join?)
  • Login
  • US Flag 
09:24AM EDT


 

Airport Tracker/Info


-or-


 

Live Flight TrackerFlight Track Log ✈ PDT4522 ✈ 05-Apr-2013 ✈ KUNV - KPHL

Flight Track Log - Related Links

Times and Time Zones

All times are in EDT time to prevent confusion due to time zone crossing. See the PDT4522 flight status page for this flight to view local times or setup timezone preferences in your user account.

Time Position Orientation Groundspeed Altitude Reporting Facility
EDT Latitude Longitude Course Direction KTS MPH feet Rate Location/Type
03:41PM 40.8267 -77.8853 157° South 251 289 3,100  Level New York Center
03:42PM 40.7906 -77.8650 157° South 153 176 4,300 1,020 Climbing New York Center
03:43PM 40.7797 -77.8008 103° East 124 143 5,200 1,140 Climbing New York Center
03:44PM 40.7708 -77.7397 101° East 136 157 6,600 1,260 Climbing New York Center
03:45PM 40.7603 -77.6728 102° East 157 181 7,800 1,080 Climbing New York Center
03:46PM 40.7514 -77.6089 100° East 170 196 8,900 1,080 Climbing New York Center
03:47PM 40.7386 -77.5392 104° East 183 211 10,000 1,020 Climbing New York Center
03:48PM 40.7236 -77.4719 106° East 197 227 11,000 480 Climbing New York Center
03:49PM 40.7097 -77.3883 102° East 216 249 11,000  Level New York Center
03:50PM 40.6861 -77.2847 107° East 248 285 11,000 -60 Level New York Center
03:51PM 40.6686 -77.1900 104° East 261 300 10,900  Descending New York Center
03:52PM 40.6508 -77.0928 104° East 266 306 11,000  Climbing New York Center
03:53PM 40.6325 -77.0033 105° East 266 306 11,000  Level New York Center
03:54PM 40.6131 -76.8978 104° East 266 306 11,000  Level New York Center
03:55PM 40.5944 -76.8142 106° East 266 306 11,000  Level New York Center
03:56PM 40.5744 -76.7167 105° East 266 306 11,000  Level New York Center
03:57PM 40.5547 -76.6083 103° East 266 306 11,000  Level New York Center
03:58PM 40.5211 -76.5319 120° Southeast 265 305 11,000  Level New York Center
03:59PM 40.4792 -76.4519 125° Southeast 272 313 11,000  Level New York Center
04:00PM 40.4272 -76.3603 127° Southeast 272 313 11,000 -120 Level New York Center
04:01PM 40.3614 -76.2417 126° Southeast 275 316 10,800 -300 Descending FAA TRACON SMA TRACON (SMA)
04:02PM 40.3450 -76.2158 130° Southeast 279 321 10,500 -1,200 Descending FAA TRACON SMA TRACON (SMA)
04:02PM 40.3303 -76.1900 127° Southeast 283 326 10,000 -1,680 Descending FAA TRACON SMA TRACON (SMA)
04:02PM 40.3119 -76.1581 127° Southeast 283 326 9,400 -1,500 Descending FAA TRACON SMA TRACON (SMA)
04:03PM 40.2994 -76.1322 122° Southeast 278 320 9,000 -1,380 Descending FAA TRACON SMA TRACON (SMA)
04:03PM 40.2872 -76.1067 122° Southeast 272 313 8,500 -1,380 Descending FAA TRACON SMA TRACON (SMA)
04:03PM 40.2758 -76.0817 121° Southeast 260 299 8,100 -1,380 Descending FAA TRACON SMA TRACON (SMA)
04:04PM 40.2614 -76.0533 124° Southeast 244 281 7,600 -1,080 Descending FAA TRACON SMA TRACON (SMA)
04:04PM 40.2514 -76.0328 123° Southeast 230 265 7,400 -900 Descending FAA TRACON SMA TRACON (SMA)
04:04PM 40.2375 -76.0078 126° Southeast 217 250 7,000 -600 Descending FAA TRACON SMA TRACON (SMA)
04:05PM 40.2256 -75.9894 130° Southeast 216 249 7,000  Level FAA TRACON SMA TRACON (SMA)
04:05PM 40.2144 -75.9706 128° Southeast 216 249 7,000  Level FAA TRACON SMA TRACON (SMA)
04:05PM 40.1989 -75.9467 130° Southeast 219 252 7,000  Level FAA TRACON SMA TRACON (SMA)
04:06PM 40.1872 -75.9275 129° Southeast 219 252 7,000  Level FAA TRACON SMA TRACON (SMA)
04:06PM 40.1781 -75.9061 119° Southeast 223 257 7,000 -180 Level FAA TRACON SMA TRACON (SMA)
04:06PM 40.1808 -75.8758 83° East 220 253 6,900 -480 Descending FAA TRACON SMA TRACON (SMA)
04:07PM 40.1828 -75.8522 84° East 217 250 6,700 -480 Descending FAA TRACON SMA TRACON (SMA)
04:07PM 40.1850 -75.8278 83° East 217 250 6,600 -480 Descending FAA TRACON SMA TRACON (SMA)
04:07PM 40.1883 -75.7986 81° East 218 251 6,400 -600 Descending FAA TRACON SMA TRACON (SMA)
04:08PM 40.1911 -75.7725 82° East 219 252 6,200 -480 Descending FAA TRACON SMA TRACON (SMA)
04:08PM 40.1892 -75.7483 96° East 225 259 6,100 -600 Descending FAA TRACON SMA TRACON (SMA)
04:08PM 40.1861 -75.7242 99° East 221 254 5,800 -1,080 Descending FAA TRACON SMA TRACON (SMA)
04:09PM 40.1825 -75.6969 100° East 210 242 5,400 -1,080 Descending FAA TRACON SMA TRACON (SMA)
04:09PM 40.1803 -75.6794 99° East 201 231 5,100 -1,080 Descending FAA TRACON SMA TRACON (SMA)
04:09PM 40.1769 -75.6478 98° East 194 223 4,700 -1,080 Descending FAA TRACON SMA TRACON (SMA)
04:10PM 40.1744 -75.6253 98° East 199 229 4,400 -900 Descending FAA TRACON SMA TRACON (SMA)
04:10PM 40.1683 -75.6025 109° East 216 249 4,100 -600 Descending FAA TRACON SMA TRACON (SMA)
04:10PM 40.1614 -75.5769 110° East 196 226 4,000  Descending FAA TRACON SMA TRACON (SMA)
04:11PM 40.1564 -75.5547 106° East 198 228 4,100  Climbing FAA TRACON SMA TRACON (SMA)
04:11PM 40.1508 -75.5325 108° East 207 238 4,000 -180 Descending FAA TRACON SMA TRACON (SMA)
04:11PM 40.1458 -75.5103 106° East 208 239 4,000  Level FAA TRACON SMA TRACON (SMA)
04:12PM 40.1361 -75.4819 114° Southeast 214 246 4,000 120 Level FAA TRACON SMA TRACON (SMA)
04:12PM 40.1297 -75.4589 110° East 216 249 4,100  Climbing FAA TRACON SMA TRACON (SMA)
04:12PM 40.1233 -75.4375 111° Southeast 217 250 4,000  Descending FAA TRACON SMA TRACON (SMA)
04:13PM 40.1153 -75.4078 110° East 216 249 4,100  Climbing FAA TRACON SMA TRACON (SMA)
04:13PM 40.1094 -75.3872 110° East 214 246 4,000 -180 Descending FAA TRACON SMA TRACON (SMA)
04:13PM 40.1028 -75.3631 110° East 215 247 4,000  Level FAA TRACON SMA TRACON (SMA)
04:14PM 40.0944 -75.3347 111° Southeast 213 245 4,000  Level FAA TRACON SMA TRACON (SMA)
04:14PM 40.0883 -75.3117 109° East 216 249 4,000  Level FAA TRACON SMA TRACON (SMA)
04:14PM 40.0828 -75.2900 109° East 216 249 4,000  Level FAA TRACON SMA TRACON (SMA)
04:15PM 40.0747 -75.2606 110° East 215 247 4,000 120 Level FAA TRACON SMA TRACON (SMA)
04:15PM 40.0650 -75.2406 122° Southeast 210 242 4,100  Climbing FAA TRACON SMA TRACON (SMA)
04:15PM 40.0486 -75.2303 154° Southeast 213 245 4,000  Descending FAA TRACON SMA TRACON (SMA)
04:16PM 40.0272 -75.2200 160° South 216 249 4,100  Climbing FAA TRACON SMA TRACON (SMA)
04:16PM 40.0106 -75.2122 160° South 213 245 4,000 -180 Descending FAA TRACON SMA TRACON (SMA)
04:16PM 39.9928 -75.2025 157° South 215 247 4,000  Level FAA TRACON SMA TRACON (SMA)
04:17PM 39.9756 -75.1933 158° South 216 249 4,000  Level FAA TRACON SMA TRACON (SMA)
04:17PM 39.9544 -75.1822 158° South 213 245 4,000 120 Level FAA TRACON SMA TRACON (SMA)
04:17PM 39.9372 -75.1733 158° South 213 245 4,100 120 Climbing FAA TRACON SMA TRACON (SMA)
04:18PM 39.9225 -75.1656 158° South 211 243 4,100 -180 Level FAA TRACON SMA TRACON (SMA)
04:18PM 39.8989 -75.1531 158° South 215 247 4,000 -180 Descending FAA TRACON SMA TRACON (SMA)
04:18PM 39.8814 -75.1439 158° South 214 246 4,000 -180 Level FAA TRACON SMA TRACON (SMA)
04:19PM 39.8642 -75.1350 158° South 214 246 3,900 -600 Descending FAA TRACON SMA TRACON (SMA)
04:19PM 39.8431 -75.1239 158° South 212 244 3,600 -900 Descending FAA TRACON SMA TRACON (SMA)
04:19PM 39.8267 -75.1158 159° South 210 242 3,300 -1,080 Descending FAA TRACON SMA TRACON (SMA)
04:20PM 39.8103 -75.1078 159° South 208 239 2,900 -1,080 Descending FAA TRACON SMA TRACON (SMA)
04:20PM 39.7919 -75.1019 166° South 207 238 2,600 -1,080 Descending FAA TRACON SMA TRACON (SMA)
04:20PM 39.7708 -75.1042 185° South 193 222 2,200 -780 Descending FAA TRACON SMA TRACON (SMA)
04:21PM 39.7639 -75.1161 233° Southwest 193 222 2,100 -300 Descending FAA TRACON SMA TRACON (SMA)
04:21PM 39.7606 -75.1383 259° West 167 192 2,000 -180 Descending FAA TRACON SMA TRACON (SMA)
04:21PM 39.7656 -75.1583 288° West 163 188 2,000 -300 Level FAA TRACON SMA TRACON (SMA)
04:22PM 39.7739 -75.1750 303° West 168 193 1,800 -480 Descending FAA TRACON SMA TRACON (SMA)
04:22PM 39.7858 -75.1844 329° Northwest 159 183 1,700 -300 Descending FAA TRACON SMA TRACON (SMA)
04:22PM 39.8017 -75.1928 338° Northwest 154 177 1,600 -180 Descending FAA TRACON SMA TRACON (SMA)
04:23PM 39.8106 -75.1972 339° North 148 170 1,600 -600 Level FAA TRACON SMA TRACON (SMA)
04:23PM 39.8247 -75.2044 339° North 139 160 1,200 -900 Descending FAA TRACON SMA TRACON (SMA)
04:23PM 39.8369 -75.2106 339° North 123 142 1,000 -780 Descending FAA TRACON SMA TRACON (SMA)
04:24PM 39.8458 -75.2150 339° North 114 131 700 -780 Descending FAA TRACON SMA TRACON (SMA)
04:24PM 39.8547 -75.2200 337° Northwest 120 138 500 -780 Descending FAA TRACON SMA TRACON (SMA)
04:24PM 39.8658 -75.2250 341° North 108 124 200 -600 Descending FAA TRACON SMA TRACON (SMA)
04:25PM 39.8681 -75.2258 344° North 105 121 100 -300 Descending FAA TRACON SMA TRACON (SMA)
04:27PM 39.8667 -75.2333 303° West  Level FlightAware Approximate